Página principal
METAR-TAF:

METAR-TAF

Aeroportos :

Hagåtña, Guam, Estados Unidos

latitude: 13-29N, longitude: 144-48E, altura: 91 m

Observação actual do tempo

O boletim foi feito há 30 minutos, às 23:54 UTC
Vento 11 kt de es-sudeste
Temperatura 31°C
Humidade 79%
Pressão 1013 hPa
Visibilidade: 16.1 km
Nuvens fragmentadasa uma altura de 2000 ft

METAR: PGUM 252354Z 11011KT 10SM BKN020 31/27 A2990 RMK AO2 SLP117 T03060267 10311 20278 50005 $

Hora: 10:24 (00:24 UTC)

Previsão

O boletim foi feito há 54 minutos, às 23:30 UTC
Previsão válida de 26 às 00 UTC a 27 às 06 UTC
Vento 12 kt de este
Visibilidade: 10 km
Poucas nuvensa uma altura de 2000 ft
Nuvens dispersasa uma altura de 5000 ft
A partir de 26 às 0800 UTC
Vento 9 kt de este
Visibilidade: 10 km
Poucas nuvensa uma altura de 2000 ft
Nuvens dispersasa uma altura de 5000 ft

TAF: PGUM 252330Z 2600/2706 10012KT P6SM FEW020 SCT050 FM260800 10009KT P6SM FEW020 SCT050

Observações e previsões do tempo de mais de 4000 aeroportos (mensagens METAR e TAF).

As estações disponíveis são os pontos amarelos e vermelhos sobre o mapa.

Mova o rato sobre o mapa para ver o nome da estação.

Depois clique no ponto para visualizar as observações e previsões meteorológicas.

Para alterar o mapa : clique nos botões verdes com uma cruz preta para aumentar o zoom; no botão verde com uma pitada de zoom; ou nas setas verdes para mapas adjacentes.


METAR-TAF: